createdAt,value
2018-12-10T00:00:01.471Z,82.17
2018-12-10T00:02:30.044Z,82.27
2018-12-10T00:04:58.767Z,81.86
2018-12-10T00:07:27.469Z,82.85
2018-12-10T00:09:56.381Z,82.32
2018-12-10T00:12:25.073Z,82.38
2018-12-10T00:14:53.680Z,82.09
2018-12-10T00:17:22.345Z,81.87
2018-12-10T00:19:50.924Z,82.09
2018-12-10T00:22:19.579Z,82.66
2018-12-10T00:24:48.194Z,82.50
2018-12-10T00:27:16.825Z,82.27
2018-12-10T00:29:45.510Z,82.17
2018-12-10T00:32:14.102Z,81.80
2018-12-10T00:34:42.861Z,81.80
2018-12-10T00:37:11.471Z,81.95
2018-12-10T00:39:40.111Z,82.65
2018-12-10T00:42:08.829Z,81.91
2018-12-10T00:44:37.423Z,83.68
2018-12-10T00:47:06.093Z,83.08
2018-12-10T00:49:34.736Z,83.32
2018-12-10T00:52:03.369Z,82.38
2018-12-10T00:54:32.071Z,82.53
2018-12-10T00:57:00.720Z,82.09
2018-12-10T00:59:29.465Z,81.93
2018-12-10T01:01:58.104Z,81.72
2018-12-10T01:04:26.746Z,82.23
2018-12-10T01:06:55.378Z,81.44
2018-12-10T01:09:24.172Z,81.14
2018-12-10T01:11:52.741Z,81.32
2018-12-10T01:14:21.352Z,82.11
2018-12-10T01:16:50.030Z,82.37
2018-12-10T01:19:18.673Z,81.38
2018-12-10T01:21:47.705Z,82.33
2018-12-10T01:24:16.569Z,81.85
2018-12-10T01:26:45.327Z,81.86
2018-12-10T01:29:13.947Z,82.72
2018-12-10T01:31:42.837Z,81.88
2018-12-10T01:34:11.477Z,81.89
2018-12-10T01:36:40.456Z,81.91
2018-12-10T01:39:10.163Z,81.94
2018-12-10T01:41:38.838Z,81.63
2018-12-10T01:44:07.492Z,81.83
2018-12-10T01:46:36.183Z,81.25
2018-12-10T01:49:04.798Z,82.37
2018-12-10T01:51:33.450Z,82.42
2018-12-10T01:54:02.095Z,81.68
2018-12-10T01:56:30.765Z,82.66
2018-12-10T01:58:59.432Z,82.66
2018-12-10T02:01:28.079Z,83.17
2018-12-10T02:03:56.718Z,84.16
2018-12-10T02:06:25.409Z,83.02
2018-12-10T02:08:54.037Z,83.71
2018-12-10T02:11:22.682Z,83.49
2018-12-10T02:13:53.141Z,83.30
2018-12-10T02:16:21.777Z,83.72
2018-12-10T02:18:50.544Z,83.59
2018-12-10T02:21:19.149Z,84.48
2018-12-10T02:23:47.815Z,84.99
2018-12-10T02:26:16.679Z,84.16
2018-12-10T02:28:50.523Z,85.05
2018-12-10T02:31:19.112Z,85.92
2018-12-10T02:33:47.757Z,86.91
2018-12-10T02:36:16.502Z,86.80
2018-12-10T02:38:45.287Z,85.77
2018-12-10T02:41:13.986Z,85.50
2018-12-10T02:43:44.063Z,84.65
2018-12-10T02:46:12.705Z,85.02
2018-12-10T02:48:41.535Z,85.09
2018-12-10T02:51:10.329Z,85.88
2018-12-10T02:53:38.963Z,85.54
2018-12-10T02:56:07.634Z,84.59
2018-12-10T03:01:35.470Z,83.98
2018-12-10T03:04:04.166Z,83.73
2018-12-10T03:06:32.869Z,84.76
2018-12-10T03:09:01.492Z,85.05
2018-12-10T03:11:30.094Z,83.66
2018-12-10T03:13:58.798Z,84.01
2018-12-10T03:16:27.585Z,83.48
2018-12-10T03:18:56.309Z,83.50
2018-12-10T03:21:25.037Z,83.66
2018-12-10T03:23:53.646Z,83.95
2018-12-10T03:26:22.235Z,83.58
2018-12-10T03:28:50.835Z,84.04
2018-12-10T03:31:19.481Z,83.52
2018-12-10T03:33:48.258Z,83.99
2018-12-10T03:36:16.904Z,83.91
2018-12-10T03:38:45.560Z,83.58
2018-12-10T03:41:14.213Z,83.67
2018-12-10T03:43:42.859Z,82.92
2018-12-10T03:46:11.500Z,84.02
2018-12-10T03:48:40.216Z,84.03
2018-12-10T03:51:08.844Z,82.87
2018-12-10T03:53:37.540Z,83.80
2018-12-10T03:56:06.187Z,83.31
2018-12-10T03:58:37.192Z,83.03
2018-12-10T04:01:05.936Z,84.11
2018-12-10T04:03:34.565Z,84.28
2018-12-10T04:06:03.221Z,84.38
2018-12-10T04:08:31.935Z,85.01
2018-12-10T04:11:00.567Z,85.72
2018-12-10T04:13:29.254Z,84.60
2018-12-10T04:15:58.018Z,84.52
2018-12-10T04:18:26.656Z,84.91
2018-12-10T04:20:55.279Z,84.71
2018-12-10T04:23:23.890Z,84.23
2018-12-10T04:25:52.491Z,84.18
2018-12-10T04:28:21.095Z,83.43
2018-12-10T04:30:50.400Z,83.34
2018-12-10T04:33:19.089Z,82.15
2018-12-10T04:35:48.418Z,82.20
2018-12-10T04:38:17.000Z,82.05
2018-12-10T04:40:45.930Z,82.66
2018-12-10T04:43:14.528Z,82.59
2018-12-10T04:45:43.180Z,83.80
2018-12-10T04:48:12.892Z,83.53
2018-12-10T04:50:41.604Z,86.39
2018-12-10T04:53:10.385Z,86.68
2018-12-10T04:55:39.053Z,88.24
2018-12-10T04:58:07.734Z,87.56
2018-12-10T05:00:36.502Z,88.98
2018-12-10T05:03:05.854Z,89.06
2018-12-10T05:05:34.519Z,89.01
2018-12-10T05:08:03.272Z,87.71
2018-12-10T05:10:31.879Z,87.98
2018-12-10T05:13:01.066Z,86.84
2018-12-10T05:15:29.696Z,86.29
2018-12-10T05:17:59.346Z,86.21
2018-12-10T05:20:28.012Z,86.54
2018-12-10T05:22:56.620Z,85.94
2018-12-10T05:25:25.318Z,84.98
2018-12-10T05:27:53.978Z,84.53
2018-12-10T05:30:22.737Z,83.76
2018-12-10T05:32:51.503Z,83.93
2018-12-10T05:35:20.204Z,83.45
2018-12-10T05:37:49.931Z,83.44
2018-12-10T05:40:18.676Z,82.87
2018-12-10T05:42:48.008Z,82.47
2018-12-10T05:45:17.017Z,83.16
2018-12-10T05:47:45.751Z,83.31
2018-12-10T17:41:17.874Z,78.63
2018-12-10T17:43:46.749Z,77.11
2018-12-10T17:46:15.494Z,76.87
2018-12-10T17:48:45.483Z,76.62
2018-12-10T17:51:15.316Z,76.76
2018-12-10T17:53:46.229Z,77.04
2018-12-10T17:57:45.323Z,77.82
2018-12-10T18:00:14.367Z,77.82
2018-12-10T18:02:43.203Z,76.81
2018-12-10T18:05:11.887Z,77.57
2018-12-10T18:07:40.655Z,78.77
2018-12-10T18:10:09.665Z,78.59
2018-12-10T18:12:38.503Z,78.49
2018-12-10T18:15:07.899Z,78.85
2018-12-10T18:17:36.647Z,78.90
2018-12-10T18:20:08.374Z,78.79
2018-12-10T18:22:37.141Z,78.87
2018-12-10T18:25:06.200Z,77.95
2018-12-10T18:27:34.951Z,78.79
2018-12-10T18:32:38.412Z,78.59
2018-12-10T18:35:08.036Z,78.02
2018-12-10T18:37:36.780Z,78.13
2018-12-10T18:40:09.622Z,78.58
2018-12-10T18:42:38.343Z,78.72
2018-12-10T18:45:10.297Z,78.44
2018-12-10T18:47:39.119Z,78.97
2018-12-10T18:50:08.063Z,78.18
2018-12-10T18:52:36.834Z,77.84
2018-12-10T18:55:06.091Z,78.53
2018-12-10T18:57:34.750Z,78.69
2018-12-10T19:00:10.574Z,78.00
2018-12-10T19:02:40.489Z,77.38
2018-12-10T19:05:10.361Z,77.92
2018-12-10T19:07:39.164Z,76.82
2018-12-10T19:10:09.226Z,77.36
2018-12-10T19:12:38.294Z,77.42
2018-12-10T19:15:09.979Z,75.89
2018-12-10T19:17:38.832Z,76.18
2018-12-10T19:20:13.474Z,76.06
2018-12-10T19:22:38.939Z,74.68
2018-12-10T19:25:07.942Z,76.33
2018-12-10T19:27:36.570Z,75.53
2018-12-10T19:30:11.623Z,75.09
2018-12-10T19:32:40.304Z,75.70
2018-12-10T19:35:09.186Z,75.17
2018-12-10T19:37:37.853Z,74.32
2018-12-10T19:40:08.044Z,75.25
2018-12-10T19:42:36.679Z,75.00
2018-12-10T19:45:06.413Z,75.24
2018-12-10T19:47:35.097Z,74.90
2018-12-10T19:50:04.735Z,75.48
2018-12-10T19:52:33.383Z,74.77
2018-12-10T19:55:02.238Z,74.41
2018-12-10T19:57:30.919Z,75.20
2018-12-10T19:59:59.622Z,75.77
2018-12-10T20:02:28.373Z,75.22
2018-12-10T20:04:57.036Z,75.28
2018-12-10T20:08:03.719Z,76.10
2018-12-10T20:10:32.434Z,76.08
2018-12-10T20:13:01.179Z,76.44
2018-12-10T20:15:29.813Z,75.51
2018-12-10T20:18:01.485Z,75.66
2018-12-10T20:20:30.187Z,76.11
2018-12-10T20:22:58.856Z,75.87
2018-12-10T20:25:27.519Z,75.38
2018-12-10T20:27:56.324Z,75.91
2018-12-10T20:30:25.017Z,75.42
2018-12-10T20:32:53.691Z,75.33
2018-12-10T20:35:22.514Z,75.10
2018-12-10T20:37:51.260Z,75.98
2018-12-10T20:40:19.936Z,75.79
2018-12-10T20:42:48.611Z,74.54
2018-12-10T20:45:18.250Z,75.37
2018-12-10T20:47:46.961Z,74.62
2018-12-10T20:50:15.707Z,74.59
2018-12-10T20:52:44.449Z,73.95
2018-12-10T20:55:13.132Z,74.74
2018-12-10T20:57:41.886Z,74.80
2018-12-10T21:00:11.041Z,74.16
2018-12-10T21:02:39.699Z,74.51
2018-12-10T21:05:08.376Z,73.82
2018-12-10T21:07:37.133Z,74.32
2018-12-10T21:10:06.383Z,73.57
2018-12-10T21:12:35.030Z,73.72
2018-12-10T21:15:04.378Z,73.26
2018-12-10T21:17:33.077Z,73.18
2018-12-10T21:20:01.692Z,73.33
2018-12-10T21:22:30.327Z,71.26
2018-12-10T21:24:58.879Z,71.87
2018-12-10T21:27:27.499Z,71.61
2018-12-10T21:29:56.318Z,70.93
2018-12-10T21:32:24.944Z,71.20
2018-12-10T21:34:53.566Z,70.62
2018-12-10T21:37:22.320Z,69.69
2018-12-10T21:39:51.009Z,70.77
2018-12-10T21:42:19.724Z,69.81
2018-12-10T21:44:48.475Z,70.21
2018-12-10T21:47:17.091Z,70.27
2018-12-10T21:49:45.761Z,70.45
2018-12-10T21:52:14.391Z,70.36
2018-12-10T21:54:43.863Z,70.22
2018-12-10T21:57:12.543Z,69.25
2018-12-10T21:59:41.164Z,69.64
2018-12-10T22:02:09.801Z,70.69
2018-12-10T22:04:38.397Z,69.83
2018-12-10T22:07:07.043Z,69.40
2018-12-10T22:09:35.683Z,70.18
2018-12-10T22:12:04.347Z,70.29
2018-12-10T22:14:32.970Z,69.84
2018-12-10T22:17:01.556Z,70.49
2018-12-10T22:19:30.557Z,70.55
2018-12-10T22:21:59.248Z,70.31
2018-12-10T22:24:27.880Z,70.44
2018-12-10T22:26:56.546Z,69.15
2018-12-10T22:29:25.271Z,68.74
2018-12-10T22:31:53.981Z,69.04
2018-12-10T22:34:22.633Z,68.43
2018-12-10T22:36:51.233Z,69.39
2018-12-10T22:39:19.857Z,69.67
2018-12-10T22:43:17.856Z,69.13
2018-12-10T22:45:46.452Z,69.20
2018-12-10T22:48:15.099Z,69.26
2018-12-10T22:50:43.760Z,67.63
2018-12-10T22:53:12.388Z,69.05
2018-12-10T22:55:41.100Z,67.87
2018-12-10T22:58:09.691Z,67.80
2018-12-10T23:00:45.395Z,67.57
2018-12-10T23:03:14.058Z,68.02
2018-12-10T23:05:43.002Z,67.98
2018-12-10T23:08:11.676Z,66.86
2018-12-10T23:10:40.332Z,67.72
2018-12-10T23:13:08.978Z,68.20
2018-12-10T23:15:37.622Z,68.05
2018-12-10T23:18:06.239Z,66.43
2018-12-10T23:20:34.835Z,66.48
2018-12-10T23:25:55.918Z,66.16
2018-12-10T23:28:24.556Z,66.45
2018-12-10T23:30:53.206Z,67.28
2018-12-10T23:33:22.809Z,66.32
2018-12-10T23:35:51.486Z,66.12
2018-12-10T23:38:20.131Z,66.42
2018-12-10T23:40:48.766Z,67.23
2018-12-10T23:43:23.041Z,66.61
2018-12-10T23:45:51.713Z,66.69
2018-12-10T23:48:20.335Z,66.28
2018-12-10T23:50:49.004Z,66.50
2018-12-10T23:53:17.615Z,66.62
2018-12-10T23:55:46.300Z,66.32
2018-12-10T23:58:14.962Z,66.61
